Aviation Digital Data Service (ADDS)

Output produced by METARs form (0804 UTC 24 September 2018)
found at http://www.aviationweather.gov/metar/data/
 
LETO 240800Z 06011KT CAVOK 22/13 Q1026 NOSIG
TAF LETO 240500Z 2406/2506 04012KT CAVOK TX33/2415Z TN14/2506Z 
     PROB40 
     TEMPO 2413/2421 VRB05KT
       
LEZG 240800Z 30016KT CAVOK 22/14 Q1026
TAF LEZG 240500Z 2406/2506 30015KT CAVOK TX27/2414Z TN20/2406Z 
     TEMPO 2406/2412 30020G30KT 
     TEMPO 2412/2423 30025G35KT 
     TEMPO 2423/2502 30020G30KT
       
LERT 240700Z 04007KT CAVOK 25/11 Q1018 NOSIG
TAF LERT 240500Z 2406/2415 05008KT CAVOK 
     BECMG 2409/2411 13010KT 
     BECMG 2412/2414 24008KT
       
LELC 240800Z 26003KT 230V300 CAVOK 27/20 Q1021 NOSIG
TAF LELC 240500Z 2406/2506 29004KT CAVOK TX29/2411Z TN20/2406Z 
     BECMG 2408/2411 07010KT 
     BECMG 2419/2423 01008KT 
     PROB30 
     TEMPO 2501/2506 BKN014
       
LEAB 240800Z VRB02KT CAVOK 20/15 Q1025 NOSIG
TAF LEAB 240500Z 2406/2415 VRB04KT CAVOK
       
LEBZ 240800Z VRB02KT CAVOK 22/13 Q1021
TAF LEBZ 240500Z 2406/2506 VRB02KT CAVOK TX38/2415Z TN19/2406Z
       
LEMO 240800Z 05003KT 020V090 CAVOK 24/09 Q1020 NOSIG
TAF LEMO 240500Z 2406/2415 08008KT CAVOK
       
LESA 240800Z 07007KT 040V100 CAVOK 18/13 Q1028
TAF LESA 240500Z 2406/2506 VRB05KT CAVOK TX31/2415Z TN06/2406Z 
     BECMG 2407/2409 04012KT
       
GCLP 240800Z 01018KT 9999 FEW030 23/21 Q1017 NOSIG
TAF GCLP 240200Z 2403/2503 36016KT 9999 FEW020 TX31/2415Z TN26/2405Z
       
TAF LIED 240500Z 2406/2415 34007KT 9999 FEW025 
     TEMPO 2406/2407 BKN025 
     BECMG 2410/2412 32018G28KT
       
LIPR 240750Z VRB02KT 9999 BKN050 25/18 Q1013
TAF LIPR 240500Z 2406/2415 22010KT CAVOK 
     BECMG 2408/2410 07018G30KT